nws-alerts: Checking more than four warning/county codes can delay the loading of your pages. You should use a cron job to get the data.

Nearby METAR Reports

 

KOXC - Oxford/Waterbury, Connecticut, USA
Distance from station: NW 7mi, 11km
Updated: 11/19/2019 10:51pm
Overcast
Overcast
 Wind from NNW
Wind: NNW 6 mph , 9 km/h
Temperature: 37°F , 3°C
Wind Chill: 32°F , 0°C
Dew Point: 34°F , 1°C
Humidity: 87%
Barometer: 29.84 inHg , 1010.5 hPa
Clouds: Overcast
Visibility: 10 miles , 16 km
Cloud details: Overcast 3000 ft
2019/11/20 03:51 KOXC 200351Z AUTO 33005KT 10SM OVC030 03/01 A2984 RMK AO2 SLP123 T00330011
KHVN - New Haven/Tweed, Connecticut, USA
Distance from station: SE 13mi, 20km
Updated: 11/19/2019 10:53pm
Overcast
Overcast
 Wind from NNW
Wind: NNW 3 mph , 6 km/h
Temperature: 45°F , 7°C
Dew Point: 36°F , 2°C
Humidity: 71%
Barometer: 29.86 inHg , 1011.2 hPa
Clouds: Overcast
Visibility: 10 miles , 16 km
Cloud details: Overcast 3100 ft
2019/11/20 03:53 KHVN 200353Z AUTO 34003KT 10SM OVC031 07/02 A2986 RMK AO2 SLP110 T00720017
 
KMMK - Meriden, Connecticut, USA
Distance from station: NE 13mi, 21km
Updated: 11/19/2019 10:53pm
Overcast
Overcast
 Wind from NNW
Wind: NNW 6 mph , 9 km/h
Temperature: 41°F , 5°C
Wind Chill: 37°F , 3°C
Dew Point: 34°F , 1°C
Humidity: 76%
Barometer: 29.85 inHg , 1010.8 hPa
Clouds: Overcast
Visibility: 10 miles , 16 km
Cloud details: Overcast 2700 ft
2019/11/20 03:53 KMMK 200353Z AUTO 34005KT 10SM OVC027 05/01 A2985 RMK AO2 SLP107 T00500006
KBDR - Bridgeport, Connecticut, USA
Distance from station: SSW 17mi, 27km
Updated: 11/19/2019 10:52pm
Overcast
Overcast
 Wind from NW
Wind: NW 5 mph , 7 km/h
Temperature: 43°F , 6°C
Wind Chill: 40°F , 4°C
Dew Point: 36°F , 2°C
Humidity: 76%
Barometer: 29.86 inHg , 1011.2 hPa
Clouds: Overcast
Visibility: 10 miles , 16 km
Cloud details: Overcast 3700 ft
2019/11/20 03:52 KBDR 200352Z AUTO 32004KT 10SM OVC037 06/02 A2986 RMK AO2 SLP111 T00610017
 
KDXR - Danbury, Connecticut, USA
Distance from station: W 23mi, 38km
Updated: 11/19/2019 10:53pm
Overcast
Overcast
 Wind from N
Wind: N 6 mph , 9 km/h
Temperature: 39°F , 4°C
Wind Chill: 35°F , 2°C
Dew Point: 34°F , 1°C
Humidity: 81%
Barometer: 29.86 inHg , 1011.2 hPa
Clouds: Overcast
Visibility: 10 miles , 16 km
Cloud details: Overcast 3300 ft
2019/11/20 03:53 KDXR 200353Z AUTO 35005KT 10SM OVC033 04/01 A2986 RMK AO2 SLP114 T00390011